Portada
METAR-TAF:

METAR-TAF

Aeropuertos :

Aeropuerto Internacional de Jartum

Jartum, Sudán

latitud: 15-36N, longitud: 032-33E, altitud: 382 m

Observación

El informe se hizo hace 22 minutos, a las 02:30 UTC
Viento 7 kt del oeste
Temperatura 26°C
Humedad 61%
Presión 1013 hPa
Visibilidad 10 km o más
sin nubes por debajo de 1500 m y sin presencia de cumulonimbus.

METAR: HSSS 210230Z 28007KT CAVOK 26/18 Q1013 NOSIG

Hora: 05:52 (02:52 UTC)

Pronóstico

El informe se hizo hace 9 horas y 52 minutos, a las 17:00 UTC
Pronóstico válido del 20 a las 18 UTC al 21 a las 24 UTC
Viento 10 kt del suroeste con ráfagas de 20 kt
Visibilidad 10 km o más
Escasas nubes a una altura de 4000 ft
Nubes dispersas a una altura de 14000 ft
Temporalmente
del 20 a las 21 UTC al 21 a las 02 UTC
Visibilidad: 4000 m
Cielo nuboso a una altura de 14000 ft
chaparrones de lluvia

TAF: HSSS 201700Z 2018/2124 22010G20KT 9999 FEW040 SCT140 TEMPO 2021/2102 4000 SHRA BKN140

Observaciones y pronósticos meteorológicos de más de 4000 aeropuertos (mensajes METAR y TAF).

Los puntos amarillos y rojos representan las estaciones disponibles.

Ponga el ratón en el punto deseado para ver el nombre de la estación.

Haga clic para ver las observaciones y los pronósticos meteorológicos.

Para cambiar el mapa : haga clic en los botones verdes con una cruz de color negro para hacer un zoom, en el botón verde con un guión para alejar o en las flechas verdes para mapas adyacentes.


METAR-TAF: